Terminal Aerodrome Forecast
Issued by NWS

Home | Current Version | Previous Version | Graphics & Text | Print | Product List | Glossary On
Versions: 1 2 3 4 5 6 7 8 9 10 11 12 13 14 15 16 17 18 19 20 21 22 23 24 25 26 27 28 29 30
000
FTUS45 KGGW 262300
TAFGDV
TAF
KGDV 262327Z 2700/2724 02007KT P6SM VCSH SCT025 OVC060
     FM270200 33008KT 6SM -SHRA SCT025 OVC045
     FM271200 34008KT P6SM VCSH OVC016
     FM271800 VRB06KT P6SM BKN045
      AMD LTD TO CLD VIS AND WIND=

USA.gov is the U.S. government's official web portal to all federal, state and local government web resources and services.